Ridgewood, NJ (07450)

3:58 PM EST on January 27, 2015 (GMT -0500)
Hope Street | Change Station
CLOSE
Current Station
Personal Weather Station
Location: Ridgewood, NJ
Elevation: 120 ft
Nearby Weather Stations
Active Advisory: Winter Weather Statement Active Notice: Public Information Statement

Elev 120 ft 40.98 °N, 74.11 °W | Updated 6 minutes ago

Partly Cloudy
Partly Cloudy
30.0 °F
Feels Like 26 °F
N
3.8
Wind Variable Wind from SW

Today
High -- | Low -- °F
--% Chance of Precip.
Yesterday
High -- | Low -- °F
Precip. -- in
7:11 AM 5:07 PM
First Quarter, 57% visible
Pressure 29.66 in
Visibility 10.0 miles
Clouds Clear
Windchill 26 °F
Dew Point 20 °F
Humidity 66%
Rainfall 0.00 in
Snow Depth Not available.
UV 1 out of 12
Pollen .10 out of 12
Air Quality Not available.
Flu Activity Not available.
METAR KTEB 272051Z 35009G18KT 10SM CLR M02/M09 A2966 RMK AO2 SLP042 T10171094 56007

More Conditions Fewer Conditions

Pressure 29.66 in
Visibility 10.0 miles
Clouds Clear
Windchill 26 °F
Dew Point 20 °F
Humidity 66%
Rainfall 0.00 in
Snow Depth Not available.
UV 1 out of 12
Pollen .10 out of 12
Air Quality Not available.
Flu Activity Not available.
METAR KTEB 272051Z 35009G18KT 10SM CLR M02/M09 A2966 RMK AO2 SLP042 T10171094 56007

More Conditions Fewer Conditions

10-Day Weather Forecast

Almanac

Astronomy

Jan. 27, 2015 Rise Set
Actual Time
Civil Twilight
Nautical Twilight
Astronomical Twilight
Moon
Length of Visible Light
Length of Day
Tomorrow will be .
, % of the Moon is Illuminated

Today's Extremes

State Highs State Lows

Community

WunderPhotos

Upload Photos

1,790,900 photos uploaded!

WunderBlogs® & News

Nearby

Air Quality

  Air Quality AQ Index Pollutant
Not available.

Snow Depth

Station Depth Elevation

Earthquake Activity

City Distance Mag. Time & Date
Minimum magnitude displayed is 2.5.

Coastal Water Temperatures

Place Temperature

Nearby Weather Stations